Time;durP1;ratioP1;P1;durP2;ratioP2;P2;SDS_P1;SDS_P2;PMS_P1;PMS_P2;Temp;Humidity;BMP_temperature;BMP_pressure;BME280_temperature;BME280_humidity;BME280_pressure;Samples;Min_cycle;Max_cycle;Signal;HPM_P1;HPM_P2
2023/12/24 00:00:10;;;;;;;0.60;0.60;;;;;;;9.26;89.06;97913.91;5064632;28;20210;-79
2023/12/24 00:02:38;;;;;;;0.50;0.50;;;;;;;9.30;87.95;97902.19;5063973;28;20273;-79
2023/12/24 00:05:05;;;;;;;0.50;0.50;;;;;;;9.38;87.51;97914.88;5064366;28;20207;-79
2023/12/24 00:07:33;;;;;;;0.80;0.50;;;;;;;9.40;86.93;97912.97;5064394;28;20205;-79
2023/12/24 00:10:00;;;;;;;0.87;0.67;;;;;;;9.39;86.85;97917.41;5064461;28;20228;-79
2023/12/24 00:12:26;;;;;;;1.97;0.50;;;;;;;9.41;86.37;97909.38;5064820;28;20761;-79
2023/12/24 00:14:54;;;;;;;1.30;0.60;;;;;;;9.38;86.42;97905.19;5065022;28;20215;-79
2023/12/24 00:17:20;;;;;;;0.40;0.40;;;;;;;9.34;87.09;97910.75;5064644;28;20305;-79
2023/12/24 00:19:48;;;;;;;0.77;0.60;;;;;;;9.34;86.85;97916.00;5063297;28;20214;-79
2023/12/24 00:22:16;;;;;;;0.60;0.60;;;;;;;9.37;86.25;97902.63;5065076;28;20237;-79
2023/12/24 00:24:44;;;;;;;0.50;0.50;;;;;;;9.36;86.11;97911.50;5064358;28;20214;-79
2023/12/24 00:27:10;;;;;;;0.80;0.50;;;;;;;9.32;86.27;97899.47;5063999;28;20210;-79
2023/12/24 00:29:39;;;;;;;1.27;0.47;;;;;;;9.43;85.08;97886.41;5064066;28;20244;-79
2023/12/24 00:32:06;;;;;;;1.63;0.57;;;;;;;9.41;85.73;97898.81;5063649;28;20637;-79
2023/12/24 00:34:33;;;;;;;0.80;0.57;;;;;;;9.38;85.55;97897.28;5063061;28;20216;-79
2023/12/24 00:37:01;;;;;;;0.70;0.57;;;;;;;9.36;85.60;97893.88;5063398;28;20228;-79
2023/12/24 00:39:27;;;;;;;0.70;0.60;;;;;;;9.38;85.58;97883.22;5062373;28;20216;-79
2023/12/24 00:41:54;;;;;;;0.70;0.60;;;;;;;9.39;85.56;97884.91;5062599;28;20298;-79
2023/12/24 00:44:20;;;;;;;0.73;0.50;;;;;;;9.35;85.87;97879.00;5062697;28;20299;-79
2023/12/24 00:46:47;;;;;;;0.40;0.40;;;;;;;9.34;85.42;97881.72;5062478;28;20230;-79
2023/12/24 00:49:13;;;;;;;0.83;0.60;;;;;;;9.37;85.56;97892.09;5061638;28;20229;-79
2023/12/24 00:51:45;;;;;;;0.40;0.40;;;;;;;9.37;86.14;97878.91;5063233;28;20228;-79
2023/12/24 00:54:16;;;;;;;0.47;0.47;;;;;;;9.33;86.03;97874.78;5064050;28;20198;-79
2023/12/24 00:56:43;;;;;;;0.53;0.50;;;;;;;9.29;86.85;97878.56;5064850;28;20202;-79
2023/12/24 00:59:09;;;;;;;0.40;0.40;;;;;;;9.29;86.15;97868.00;5063964;28;20212;-79
2023/12/24 01:01:36;;;;;;;1.50;0.40;;;;;;;9.28;86.34;97875.09;5064093;28;20249;-79
2023/12/24 01:04:02;;;;;;;2.07;0.50;;;;;;;9.26;86.17;97884.06;5064314;28;20207;-79
2023/12/24 01:06:29;;;;;;;0.90;0.60;;;;;;;9.27;85.34;97880.47;5063122;28;20222;-79
2023/12/24 01:08:55;;;;;;;0.67;0.50;;;;;;;9.29;84.90;97862.72;5062205;28;20213;-79
2023/12/24 01:11:23;;;;;;;1.37;0.57;;;;;;;9.39;84.42;97863.81;5063880;28;20251;-79
2023/12/24 01:13:50;;;;;;;0.50;0.50;;;;;;;9.42;83.33;97853.88;5063828;28;20211;-79
2023/12/24 01:16:16;;;;;;;1.20;0.70;;;;;;;9.42;83.10;97859.16;5064117;28;20592;-79
2023/12/24 01:18:46;;;;;;;0.70;0.60;;;;;;;9.41;83.54;97872.44;5063588;28;20254;-79
2023/12/24 01:21:12;;;;;;;0.70;0.50;;;;;;;9.38;83.49;97877.94;5063149;28;20742;-79
2023/12/24 01:23:39;;;;;;;0.50;0.50;;;;;;;9.42;82.46;97879.44;5063185;28;20702;-79
2023/12/24 01:26:05;;;;;;;0.50;0.50;;;;;;;9.43;82.24;97883.75;5063058;28;20385;-79
2023/12/24 01:28:33;;;;;;;0.70;0.67;;;;;;;9.42;82.31;97879.44;5063920;28;20222;-79
2023/12/24 01:31:01;;;;;;;0.50;0.40;;;;;;;9.41;81.99;97885.63;5062938;28;20229;-79
2023/12/24 01:33:27;;;;;;;1.00;0.60;;;;;;;9.43;81.77;97875.84;5059671;28;20713;-78
2023/12/24 01:35:53;;;;;;;0.57;0.57;;;;;;;9.43;81.02;97875.84;5062213;28;20281;-79
2023/12/24 01:38:23;;;;;;;0.73;0.60;;;;;;;9.39;81.47;97866.44;5064008;28;20206;-79
2023/12/24 01:40:50;;;;;;;0.53;0.50;;;;;;;9.38;81.17;97848.94;5063457;28;20211;-79
2023/12/24 01:43:17;;;;;;;2.33;0.70;;;;;;;9.34;81.27;97852.72;5062963;28;20236;-79
2023/12/24 01:45:45;;;;;;;1.17;0.80;;;;;;;9.32;81.64;97841.44;5063213;28;20219;-79
2023/12/24 01:48:14;;;;;;;0.60;0.60;;;;;;;9.29;82.04;97839.00;5063199;28;20217;-79
2023/12/24 01:50:43;;;;;;;0.90;0.60;;;;;;;9.31;81.92;97845.88;5063408;28;20235;-79
2023/12/24 01:53:09;;;;;;;0.50;0.50;;;;;;;9.22;82.08;97850.91;5062365;28;20218;-79
2023/12/24 01:55:36;;;;;;;0.87;0.63;;;;;;;9.14;82.57;97842.69;5063352;28;20227;-79
2023/12/24 01:58:04;;;;;;;1.20;0.60;;;;;;;9.12;83.20;97877.06;5062494;28;20667;-79
2023/12/24 02:00:31;;;;;;;1.03;0.70;;;;;;;9.07;83.84;97878.34;5061400;28;20215;-79
2023/12/24 02:03:01;;;;;;;0.50;0.50;;;;;;;9.02;84.34;97869.88;5062063;28;20235;-79
2023/12/24 02:05:31;;;;;;;1.03;0.60;;;;;;;9.02;84.09;97876.03;5062722;28;20220;-79
2023/12/24 02:07:57;;;;;;;1.93;0.67;;;;;;;8.99;84.72;97870.09;5062675;28;20208;-79
2023/12/24 02:10:24;;;;;;;1.00;0.70;;;;;;;8.95;85.09;97858.06;5063199;28;20245;-79
2023/12/24 02:12:51;;;;;;;0.50;0.50;;;;;;;8.87;85.57;97873.56;5062970;28;20235;-79
2023/12/24 02:15:17;;;;;;;0.57;0.57;;;;;;;8.81;85.80;97860.78;5062566;28;20215;-79
2023/12/24 02:17:44;;;;;;;1.10;0.53;;;;;;;8.85;85.13;97851.72;5061249;28;20210;-79
2023/12/24 02:20:12;;;;;;;0.83;0.50;;;;;;;8.87;85.36;97874.38;5061976;28;20240;-79
2023/12/24 02:22:40;;;;;;;0.53;0.50;;;;;;;8.97;84.18;97871.97;5062229;28;20623;-79
2023/12/24 02:25:07;;;;;;;1.83;0.60;;;;;;;9.04;83.63;97876.75;5062073;28;20211;-79
2023/12/24 02:27:38;;;;;;;1.27;0.67;;;;;;;9.05;84.00;97874.97;5062541;28;20245;-79
2023/12/24 02:30:11;;;;;;;0.40;0.40;;;;;;;9.01;84.59;97882.22;5062903;28;20640;-79
2023/12/24 02:32:39;;;;;;;0.67;0.67;;;;;;;9.08;84.20;97883.50;5062193;28;20234;-79
2023/12/24 02:35:08;;;;;;;1.33;0.67;;;;;;;9.10;83.90;97880.75;5062151;28;20248;-79
2023/12/24 02:37:34;;;;;;;0.70;0.50;;;;;;;9.09;84.26;97876.44;5062493;28;20217;-79
2023/12/24 02:40:03;;;;;;;0.43;0.43;;;;;;;9.15;83.70;97886.56;5061378;28;20205;-79
2023/12/24 02:42:29;;;;;;;0.40;0.40;;;;;;;9.14;84.30;97882.25;5058227;28;20234;-79
2023/12/24 02:44:56;;;;;;;0.50;0.50;;;;;;;9.17;84.09;97895.25;5062497;28;20220;-79
2023/12/24 02:47:22;;;;;;;0.87;0.40;;;;;;;9.12;84.57;97887.63;5063325;28;20552;-79
2023/12/24 02:49:49;;;;;;;0.43;0.40;;;;;;;9.15;84.43;97886.56;5062123;28;20228;-79
2023/12/24 02:52:15;;;;;;;0.40;0.40;;;;;;;9.15;84.25;97886.56;5064022;28;20235;-79
2023/12/24 02:54:44;;;;;;;0.30;0.30;;;;;;;9.15;84.38;97891.84;5066310;28;20210;-79
2023/12/24 02:57:12;;;;;;;1.27;0.50;;;;;;;9.11;85.10;97895.66;5065333;28;20200;-79
2023/12/24 02:59:38;;;;;;;0.50;0.50;;;;;;;9.04;86.77;97903.09;5066032;28;20296;-79
2023/12/24 03:02:05;;;;;;;0.40;0.40;;;;;;;9.01;87.10;97902.47;5065381;28;20245;-79
2023/12/24 03:04:31;;;;;;;0.53;0.40;;;;;;;8.99;87.56;97907.84;5065801;28;20206;-79
2023/12/24 03:06:58;;;;;;;0.50;0.50;;;;;;;8.97;87.74;97900.97;5065643;28;20210;-79
2023/12/24 03:09:24;;;;;;;0.73;0.40;;;;;;;8.93;88.45;97896.88;5066244;28;20210;-79
2023/12/24 03:11:51;;;;;;;2.17;0.50;;;;;;;8.91;88.81;97904.00;5065201;28;20248;-79
2023/12/24 03:14:19;;;;;;;0.53;0.53;;;;;;;8.94;88.91;97893.28;5064831;28;20206;-79
2023/12/24 03:16:45;;;;;;;0.30;0.30;;;;;;;8.94;89.33;97895.91;5064335;28;20220;-79
2023/12/24 03:19:12;;;;;;;0.40;0.40;;;;;;;8.97;89.27;97903.59;5064177;28;20207;-79
2023/12/24 03:21:41;;;;;;;0.40;0.40;;;;;;;8.98;89.02;97894.75;5065140;28;20592;-79
2023/12/24 03:24:07;;;;;;;1.27;0.50;;;;;;;8.95;89.90;97887.06;5064191;28;20211;-79
2023/12/24 03:26:34;;;;;;;0.93;0.50;;;;;;;8.97;89.61;97893.06;5064276;28;20211;-79
2023/12/24 03:29:01;;;;;;;0.73;0.60;;;;;;;8.93;90.72;97900.34;5063902;28;20214;-79
2023/12/24 03:31:29;;;;;;;0.60;0.40;;;;;;;8.93;90.28;97910.06;5064279;28;20301;-79
2023/12/24 03:33:55;;;;;;;0.40;0.40;;;;;;;8.90;90.99;97918.16;5064854;28;20214;-79
2023/12/24 03:36:22;;;;;;;0.87;0.60;;;;;;;8.97;90.71;97899.19;5064773;28;20213;-79
2023/12/24 03:38:48;;;;;;;0.37;0.37;;;;;;;8.89;91.52;97908.56;5063736;28;20214;-79
2023/12/24 03:41:16;;;;;;;0.50;0.50;;;;;;;8.91;91.40;97898.75;5064234;28;20226;-79
2023/12/24 03:43:42;;;;;;;1.27;0.40;;;;;;;8.89;91.61;97916.47;5059817;28;20744;-80
2023/12/24 03:46:09;;;;;;;0.50;0.50;;;;;;;8.87;91.83;97913.09;5056933;28;20206;-78
2023/12/24 03:48:37;;;;;;;0.73;0.50;;;;;;;8.87;91.88;97916.56;5056684;28;20218;-77
2023/12/24 03:51:04;;;;;;;0.80;0.40;;;;;;;8.85;92.08;97913.19;5056803;28;20229;-79
2023/12/24 03:53:31;;;;;;;1.70;0.73;;;;;;;8.93;91.69;97904.78;5057387;28;20585;-79
2023/12/24 03:55:57;;;;;;;0.53;0.50;;;;;;;8.87;91.87;97907.81;5062874;28;20218;-78
2023/12/24 03:58:24;;;;;;;0.50;0.50;;;;;;;8.84;92.41;97908.88;5063744;28;20630;-78
2023/12/24 04:00:50;;;;;;;0.30;0.30;;;;;;;8.81;92.47;97903.78;5063817;28;20207;-78
2023/12/24 04:03:17;;;;;;;0.73;0.43;;;;;;;8.79;92.14;97894.28;5063035;28;20737;-78
2023/12/24 04:05:44;;;;;;;0.97;0.50;;;;;;;8.77;92.40;97888.28;5063950;28;20213;-78
2023/12/24 04:08:11;;;;;;;0.50;0.50;;;;;;;8.75;92.44;97887.53;5058369;28;20207;-78
2023/12/24 04:10:39;;;;;;;1.80;0.77;;;;;;;8.75;92.64;97880.47;5060060;28;20239;-79
2023/12/24 04:13:06;;;;;;;0.50;0.50;;;;;;;8.76;92.21;97873.41;5062075;28;20241;-80
2023/12/24 04:15:33;;;;;;;0.50;0.50;;;;;;;8.78;91.82;97882.91;5056730;28;20207;-79
2023/12/24 04:17:59;;;;;;;0.60;0.60;;;;;;;8.86;91.00;97869.22;5057490;28;20209;-80
2023/12/24 04:20:26;;;;;;;0.50;0.50;;;;;;;8.86;90.42;97875.34;5057293;28;20693;-79
2023/12/24 04:22:54;;;;;;;0.60;0.60;;;;;;;8.88;90.58;97883.97;5057326;28;20600;-78
2023/12/24 04:25:20;;;;;;;0.60;0.60;;;;;;;8.89;90.38;97879.56;5055566;28;20672;-78
2023/12/24 04:27:47;;;;;;;0.90;0.70;;;;;;;8.91;89.58;97888.19;5056731;28;20217;-78
2023/12/24 04:30:16;;;;;;;0.60;0.60;;;;;;;8.95;89.19;97884.44;5057941;28;20567;-78
2023/12/24 04:32:43;;;;;;;1.77;0.70;;;;;;;8.93;89.76;97881.06;5055453;28;20235;-78
2023/12/24 04:35:10;;;;;;;0.50;0.50;;;;;;;8.93;89.27;97881.88;5054658;28;20219;-78
2023/12/24 04:37:36;;;;;;;0.90;0.63;;;;;;;8.87;89.71;97877.03;5054827;28;20213;-78
2023/12/24 04:40:05;;;;;;;0.60;0.60;;;;;;;8.90;89.59;97868.06;5055617;28;20207;-78
2023/12/24 04:42:32;;;;;;;0.87;0.70;;;;;;;8.92;89.53;97863.53;5053922;28;20235;-78
2023/12/24 04:44:59;;;;;;;1.03;0.60;;;;;;;8.93;89.47;97849.44;5054755;28;20214;-78
2023/12/24 04:47:25;;;;;;;0.73;0.60;;;;;;;8.94;89.11;97851.13;5055318;28;20217;-78
2023/12/24 04:49:51;;;;;;;0.67;0.50;;;;;;;8.93;89.22;97844.16;5055589;28;20210;-80
2023/12/24 04:52:18;;;;;;;0.60;0.60;;;;;;;8.94;89.76;97841.41;5055025;28;20242;-80
2023/12/24 04:54:45;;;;;;;0.67;0.67;;;;;;;8.90;90.87;97839.94;5055857;28;20209;-80
2023/12/24 04:57:13;;;;;;;2.30;2.10;;;;;;;8.89;90.59;97837.41;5055078;28;20700;-80
2023/12/24 04:59:39;;;;;;;0.60;0.60;;;;;;;8.83;91.37;97832.53;5055285;28;20208;-80
2023/12/24 05:02:06;;;;;;;1.23;0.77;;;;;;;8.80;91.84;97812.50;5054766;28;20255;-80
2023/12/24 05:04:34;;;;;;;0.40;0.40;;;;;;;8.75;92.02;97813.78;5055033;28;20283;-80
2023/12/24 05:07:01;;;;;;;1.17;0.50;;;;;;;8.75;92.42;97813.78;5062134;28;20210;-78
2023/12/24 05:09:27;;;;;;;0.60;0.50;;;;;;;8.70;92.62;97818.50;5063559;28;20223;-78
2023/12/24 05:11:54;;;;;;;0.90;0.60;;;;;;;8.65;93.27;97810.06;5062773;28;20238;-79
2023/12/24 05:14:22;;;;;;;0.47;0.47;;;;;;;8.67;93.16;97814.28;5062851;28;20689;-79
2023/12/24 05:16:49;;;;;;;0.53;0.53;;;;;;;8.64;93.24;97805.72;5062920;28;20208;-79
2023/12/24 05:19:15;;;;;;;0.43;0.43;;;;;;;8.64;93.27;97816.28;5062476;28;20218;-79
2023/12/24 05:21:41;;;;;;;0.50;0.50;;;;;;;8.58;93.87;97811.41;5062148;28;20721;-79
2023/12/24 05:24:08;;;;;;;1.63;0.60;;;;;;;8.54;94.54;97815.19;5061201;28;20586;-79
2023/12/24 05:26:34;;;;;;;0.50;0.50;;;;;;;8.49;94.99;97825.16;5061353;28;20226;-79
2023/12/24 05:29:01;;;;;;;0.50;0.50;;;;;;;8.44;95.59;97837.81;5062085;28;20210;-79
2023/12/24 05:31:29;;;;;;;0.50;0.50;;;;;;;8.40;96.08;97847.69;5061762;28;20633;-79
2023/12/24 05:33:55;;;;;;;0.70;0.70;;;;;;;8.43;95.73;97847.50;5061877;28;20217;-79
2023/12/24 05:36:21;;;;;;;0.40;0.40;;;;;;;8.41;96.17;97861.69;5061212;28;20322;-79
2023/12/24 05:38:48;;;;;;;0.50;0.50;;;;;;;8.40;96.54;97865.28;5062213;28;20214;-79
2023/12/24 05:41:17;;;;;;;0.40;0.40;;;;;;;8.45;96.52;97866.66;5061797;28;20231;-79
2023/12/24 05:43:43;;;;;;;1.17;0.50;;;;;;;8.49;96.17;97865.53;5062339;28;20221;-79
2023/12/24 05:46:11;;;;;;;0.30;0.30;;;;;;;8.55;95.89;97861.63;5061607;28;20211;-79
2023/12/24 05:48:39;;;;;;;0.50;0.50;;;;;;;8.54;96.03;97852.06;5061697;28;20291;-79
2023/12/24 05:51:06;;;;;;;0.40;0.40;;;;;;;8.58;96.27;97837.75;5061871;28;20237;-79
2023/12/24 05:53:32;;;;;;;0.40;0.40;;;;;;;8.56;95.89;97835.22;5062397;28;20245;-79
2023/12/24 05:55:59;;;;;;;0.50;0.50;;;;;;;8.55;96.04;97823.00;5062327;28;20214;-79
2023/12/24 05:58:25;;;;;;;0.30;0.30;;;;;;;8.53;96.51;97824.03;5061953;28;20216;-79
2023/12/24 06:00:52;;;;;;;0.93;0.40;;;;;;;8.55;96.76;97832.66;5062216;28;20272;-79
2023/12/24 06:03:18;;;;;;;0.30;0.30;;;;;;;8.54;96.89;97830.97;5062324;28;20221;-79
2023/12/24 06:05:46;;;;;;;0.43;0.40;;;;;;;8.52;96.81;97827.63;5062079;28;20208;-79
2023/12/24 06:08:14;;;;;;;0.40;0.40;;;;;;;8.50;97.09;97818.97;5062202;28;20204;-79
2023/12/24 06:10:41;;;;;;;0.60;0.40;;;;;;;8.54;97.56;97805.50;5062505;28;20220;-79
2023/12/24 06:13:07;;;;;;;0.40;0.40;;;;;;;8.55;97.04;97814.22;5062292;28;20318;-79
2023/12/24 06:15:34;;;;;;;0.40;0.40;;;;;;;8.56;97.41;97816.78;5061700;28;20213;-79
2023/12/24 06:18:01;;;;;;;0.43;0.43;;;;;;;8.57;97.16;97817.63;5061389;28;20221;-79
2023/12/24 06:20:29;;;;;;;0.27;0.27;;;;;;;8.55;97.65;97823.00;5062232;28;20245;-79
2023/12/24 06:22:57;;;;;;;0.40;0.30;;;;;;;8.55;97.73;97822.13;5062735;28;20260;-79
2023/12/24 06:25:23;;;;;;;0.30;0.30;;;;;;;8.60;97.50;97825.31;5062048;28;20210;-79
2023/12/24 06:27:50;;;;;;;0.30;0.30;;;;;;;8.57;97.73;97822.91;5062265;28;20211;-79
2023/12/24 06:30:17;;;;;;;0.47;0.40;;;;;;;8.52;98.08;97806.53;5062567;28;20211;-79
2023/12/24 06:32:44;;;;;;;0.40;0.40;;;;;;;8.54;98.37;97807.28;5062698;28;20241;-79
2023/12/24 06:35:10;;;;;;;0.73;0.40;;;;;;;8.48;99.14;97826.13;5062077;28;20208;-79
2023/12/24 06:37:37;;;;;;;0.30;0.30;;;;;;;8.46;99.68;97817.47;5063604;28;20221;-78
2023/12/24 06:40:06;;;;;;;0.30;0.30;;;;;;;8.49;99.04;97804.09;5063476;28;20221;-79
2023/12/24 06:42:32;;;;;;;0.40;0.40;;;;;;;8.51;99.33;97812.75;5063242;28;20237;-79
2023/12/24 06:44:59;;;;;;;0.50;0.47;;;;;;;8.51;99.51;97810.13;5063584;28;20220;-79
2023/12/24 06:47:26;;;;;;;0.47;0.47;;;;;;;8.53;99.99;97803.81;5063462;28;20218;-78
2023/12/24 06:49:52;;;;;;;0.40;0.40;;;;;;;8.52;99.92;97796.00;5063104;28;20308;-78
2023/12/24 06:52:19;;;;;;;0.63;0.43;;;;;;;8.59;99.46;97798.16;5062520;28;20249;-78
2023/12/24 06:54:46;;;;;;;0.40;0.33;;;;;;;8.64;98.99;97795.19;5059809;28;20214;-78
2023/12/24 06:57:14;;;;;;;0.50;0.50;;;;;;;8.65;99.68;97797.75;5059218;28;20238;-78
2023/12/24 06:59:40;;;;;;;0.70;0.40;;;;;;;8.67;99.42;97794.97;5060024;28;20218;-79
2023/12/24 07:02:07;;;;;;;0.53;0.50;;;;;;;8.70;98.75;97784.25;5058388;28;20245;-77
2023/12/24 07:04:33;;;;;;;0.47;0.47;;;;;;;8.75;98.58;97787.44;5054186;28;20222;-79
2023/12/24 07:07:00;;;;;;;1.23;0.40;;;;;;;8.74;99.03;97775.16;5059571;28;20214;-78
2023/12/24 07:09:26;;;;;;;0.40;0.40;;;;;;;8.79;98.68;97773.06;5061759;28;20210;-78
2023/12/24 07:11:53;;;;;;;1.03;0.50;;;;;;;8.77;99.10;97769.72;5061367;28;20244;-79
2023/12/24 07:14:21;;;;;;;0.40;0.40;;;;;;;8.80;99.45;97769.50;5061855;28;20233;-79
2023/12/24 07:16:48;;;;;;;0.40;0.40;;;;;;;8.81;99.41;97773.84;5061563;28;20244;-78
2023/12/24 07:19:15;;;;;;;0.57;0.50;;;;;;;8.81;99.79;97776.47;5061703;28;20222;-78
2023/12/24 07:21:41;;;;;;;0.40;0.40;;;;;;;8.84;99.80;97773.63;5060830;28;20234;-78
2023/12/24 07:24:08;;;;;;;0.50;0.50;;;;;;;8.88;99.85;97772.47;5061437;28;20207;-78
2023/12/24 07:26:35;;;;;;;0.60;0.60;;;;;;;8.90;100.00;97787.22;5060776;28;20679;-78
2023/12/24 07:29:01;;;;;;;0.70;0.40;;;;;;;8.91;100.00;97777.50;5060943;28;20204;-79
2023/12/24 07:31:29;;;;;;;1.33;0.40;;;;;;;8.88;100.00;97775.94;5062905;28;20307;-78
2023/12/24 07:33:55;;;;;;;0.30;0.30;;;;;;;8.90;100.00;97786.38;5063132;28;20582;-78
2023/12/24 07:36:22;;;;;;;0.30;0.30;;;;;;;8.89;100.00;97776.78;5062271;28;20220;-78
2023/12/24 07:38:48;;;;;;;0.30;0.30;;;;;;;8.85;100.00;97773.50;5063078;28;20223;-78
2023/12/24 07:41:15;;;;;;;0.57;0.40;;;;;;;8.83;100.00;97770.16;5062882;28;20227;-78
2023/12/24 07:43:41;;;;;;;0.80;0.37;;;;;;;8.83;100.00;97769.28;5062852;28;20276;-79
2023/12/24 07:46:09;;;;;;;0.50;0.50;;;;;;;8.83;100.00;97756.97;5062183;28;20220;-78
2023/12/24 07:48:37;;;;;;;0.37;0.37;;;;;;;8.88;100.00;97748.75;5062141;28;20219;-78
2023/12/24 07:51:03;;;;;;;0.40;0.40;;;;;;;8.88;100.00;97744.31;5062015;28;20219;-80
2023/12/24 07:53:30;;;;;;;0.43;0.40;;;;;;;8.89;100.00;97747.81;5062396;28;20223;-79
2023/12/24 07:55:56;;;;;;;0.40;0.40;;;;;;;8.83;100.00;97753.50;5062767;28;20221;-78
2023/12/24 07:58:23;;;;;;;0.40;0.40;;;;;;;8.86;100.00;97748.00;5062153;28;20215;-78
2023/12/24 08:00:50;;;;;;;0.83;0.40;;;;;;;8.86;100.00;97746.22;5056656;28;20754;-78
2023/12/24 08:03:16;;;;;;;0.30;0.30;;;;;;;8.96;100.00;97764.88;5058302;28;20247;-77
2023/12/24 08:05:44;;;;;;;1.03;0.40;;;;;;;9.01;100.00;97762.78;5053976;28;20223;-76
2023/12/24 08:08:11;;;;;;;0.40;0.40;;;;;;;9.00;100.00;97777.72;5054130;28;20210;-77
2023/12/24 08:10:37;;;;;;;0.37;0.37;;;;;;;9.04;100.00;97784.50;5054089;28;20302;-78
2023/12/24 08:13:05;;;;;;;0.60;0.50;;;;;;;9.06;100.00;97776.47;5053181;28;20700;-77
2023/12/24 08:15:31;;;;;;;0.30;0.30;;;;;;;9.09;100.00;97747.25;5053489;28;20212;-77
2023/12/24 08:17:58;;;;;;;0.73;0.43;;;;;;;9.18;100.00;97759.81;5054036;28;20211;-78
2023/12/24 08:20:24;;;;;;;0.30;0.30;;;;;;;9.21;100.00;97754.31;5061280;28;20220;-79
2023/12/24 08:22:52;;;;;;;0.30;0.30;;;;;;;9.25;100.00;97750.53;5062835;28;20227;-79
2023/12/24 08:25:19;;;;;;;0.40;0.40;;;;;;;9.26;100.00;97744.31;5062783;28;20219;-79
2023/12/24 08:27:45;;;;;;;0.37;0.30;;;;;;;9.30;100.00;97743.16;5063091;28;20212;-79
2023/12/24 08:30:13;;;;;;;0.37;0.30;;;;;;;9.38;100.00;97731.09;5061329;28;20219;-79
2023/12/24 08:32:39;;;;;;;0.77;0.33;;;;;;;9.42;100.00;97719.38;5063724;28;20251;-78
2023/12/24 08:35:06;;;;;;;0.50;0.40;;;;;;;9.40;100.00;97723.06;5060740;28;20395;-78
2023/12/24 08:37:32;;;;;;;0.40;0.40;;;;;;;9.46;100.00;97704.16;5061543;28;20218;-78
2023/12/24 08:40:00;;;;;;;0.33;0.30;;;;;;;9.42;100.00;97710.63;5065836;28;20218;-79
2023/12/24 08:42:27;;;;;;;0.30;0.30;;;;;;;9.44;100.00;97698.16;5064252;28;20229;-79
2023/12/24 08:44:53;;;;;;;0.30;0.30;;;;;;;9.48;100.00;97686.47;5061465;28;20222;-79
2023/12/24 08:47:20;;;;;;;0.97;0.40;;;;;;;9.47;100.00;97692.66;5063152;28;20222;-79
2023/12/24 08:49:46;;;;;;;0.70;0.30;;;;;;;9.46;100.00;97690.97;5063291;28;20219;-79
2023/12/24 08:52:13;;;;;;;0.23;0.20;;;;;;;9.54;100.00;97692.13;5062369;28;20236;-81
2023/12/24 08:54:39;;;;;;;0.20;0.20;;;;;;;9.58;100.00;97690.94;5060467;28;20215;-79
2023/12/24 08:57:08;;;;;;;0.23;0.23;;;;;;;9.66;100.00;97688.59;5061930;28;20218;-79
2023/12/24 08:59:34;;;;;;;0.30;0.30;;;;;;;9.73;100.00;97705.66;5065428;28;20214;-79
2023/12/24 09:02:01;;;;;;;0.53;0.40;;;;;;;9.83;100.00;97714.59;5082007;28;20234;-79
2023/12/24 09:04:27;;;;;;;0.30;0.30;;;;;;;9.80;100.00;97711.34;5082406;28;20210;-79
2023/12/24 09:06:54;;;;;;;0.20;0.20;;;;;;;9.78;100.00;97734.38;5082026;28;20203;-79
2023/12/24 09:09:20;;;;;;;0.20;0.20;;;;;;;9.80;100.00;97740.38;5080990;28;20208;-81
2023/12/24 09:11:47;;;;;;;0.70;0.27;;;;;;;9.70;100.00;97757.81;5081841;28;20234;-78
2023/12/24 09:14:15;;;;;;;1.00;0.50;;;;;;;9.66;100.00;97762.47;5082166;28;20582;-79
2023/12/24 09:16:42;;;;;;;1.27;0.40;;;;;;;9.61;100.00;97769.03;5080100;28;20220;-80
2023/12/24 09:19:08;;;;;;;1.40;0.40;;;;;;;9.54;100.00;97773.91;5081227;28;20234;-78
2023/12/24 09:21:35;;;;;;;0.23;0.23;;;;;;;9.45;100.00;97768.44;5079799;28;20231;-79
2023/12/24 09:24:02;;;;;;;0.40;0.40;;;;;;;9.43;100.00;97773.81;5081871;28;20611;-79
2023/12/24 09:26:28;;;;;;;0.47;0.40;;;;;;;9.39;100.00;97785.53;5081380;28;20244;-79
2023/12/24 09:28:55;;;;;;;0.83;0.20;;;;;;;9.36;100.00;97784.91;5080504;28;20233;-79
2023/12/24 09:31:22;;;;;;;0.30;0.30;;;;;;;9.34;100.00;97770.97;5080026;28;20236;-79
2023/12/24 09:33:49;;;;;;;0.97;0.40;;;;;;;9.30;100.00;97774.78;5080174;28;20695;-80
2023/12/24 09:36:15;;;;;;;0.40;0.40;;;;;;;9.30;100.00;97767.69;5077552;28;20219;-80
2023/12/24 09:38:42;;;;;;;0.40;0.40;;;;;;;9.29;100.00;97765.16;5079707;28;20214;-80
2023/12/24 09:41:08;;;;;;;0.30;0.30;;;;;;;9.25;100.00;97761.06;5080506;28;20231;-80
2023/12/24 09:43:38;;;;;;;0.30;0.30;;;;;;;9.27;100.00;97760.03;5079020;28;20217;-79
2023/12/24 09:46:04;;;;;;;0.27;0.27;;;;;;;9.27;100.00;97769.72;5077564;28;20594;-79
2023/12/24 09:48:36;;;;;;;0.30;0.30;;;;;;;9.23;100.00;97765.63;5077793;28;20215;-80
2023/12/24 09:51:03;;;;;;;0.40;0.30;;;;;;;9.17;100.00;97764.22;5077944;28;20278;-80
2023/12/24 09:53:29;;;;;;;0.27;0.27;;;;;;;9.18;100.00;97770.38;5078189;28;20312;-79
2023/12/24 09:55:59;;;;;;;1.60;0.50;;;;;;;9.15;100.00;97762.66;5082304;28;20224;-80
2023/12/24 09:58:25;;;;;;;0.30;0.30;;;;;;;9.15;100.00;97767.94;5081529;28;20674;-79
2023/12/24 10:00:52;;;;;;;0.67;0.40;;;;;;;9.16;100.00;97778.38;5081462;28;20221;-79
2023/12/24 10:03:19;;;;;;;0.60;0.47;;;;;;;9.13;100.00;97769.84;5081174;28;20221;-80
2023/12/24 10:06:05;;;;;;;0.83;0.40;;;;;;;9.15;100.00;97765.28;5081213;28;20224;-79
2023/12/24 10:08:32;;;;;;;0.40;0.40;;;;;;;9.16;100.00;97772.25;5081504;28;20214;-79
2023/12/24 10:11:12;;;;;;;1.40;0.40;;;;;;;9.19;100.00;97772.06;5081972;28;20210;-79
2023/12/24 10:13:39;;;;;;;0.30;0.30;;;;;;;9.15;100.00;97770.56;5081787;28;20725;-80
2023/12/24 10:16:06;;;;;;;0.40;0.40;;;;;;;9.18;100.00;97759.81;5069868;28;20216;-80
2023/12/24 10:18:33;;;;;;;0.80;0.40;;;;;;;9.20;100.00;97752.63;5061110;28;20667;-79
2023/12/24 10:21:06;;;;;;;0.33;0.33;;;;;;;9.20;100.00;97750.00;5060494;28;20289;-79
2023/12/24 10:23:32;;;;;;;1.37;0.40;;;;;;;9.22;100.00;97750.72;5060686;28;20211;-79
2023/12/24 10:26:03;;;;;;;0.30;0.30;;;;;;;9.23;100.00;97741.91;5060466;28;20211;-79
2023/12/24 10:28:33;;;;;;;0.67;0.33;;;;;;;9.24;100.00;97751.47;5059532;28;20217;-80
2023/12/24 10:31:07;;;;;;;0.57;0.40;;;;;;;9.23;100.00;97745.34;5060103;28;20210;-79
2023/12/24 10:33:34;;;;;;;0.30;0.30;;;;;;;9.29;100.00;97741.44;5060275;28;20223;-80
2023/12/24 10:36:00;;;;;;;0.57;0.50;;;;;;;9.32;100.00;97735.97;5058792;28;20214;-80
2023/12/24 10:38:29;;;;;;;0.40;0.40;;;;;;;9.33;100.00;97750.81;5059431;28;20269;-79
2023/12/24 10:40:54;;;;;;;2.33;0.50;;;;;;;9.36;100.00;97748.00;5058649;28;20604;-79
2023/12/24 10:43:20;;;;;;;0.37;0.30;;;;;;;9.43;100.00;97738.69;5059829;28;20291;-78
2023/12/24 10:45:47;;;;;;;0.30;0.30;;;;;;;9.51;100.00;97747.75;5059608;28;20211;-80
2023/12/24 10:48:15;;;;;;;1.37;0.43;;;;;;;9.51;100.00;97753.03;5057605;28;20690;-79
2023/12/24 10:50:41;;;;;;;0.40;0.33;;;;;;;9.53;100.00;97752.88;5060200;28;20208;-80
2023/12/24 10:53:08;;;;;;;0.97;0.33;;;;;;;9.57;100.00;97744.69;5062111;28;20236;-80
2023/12/24 10:55:37;;;;;;;1.20;0.30;;;;;;;9.57;100.00;97742.03;5079326;28;20210;-79
2023/12/24 10:58:10;;;;;;;0.60;0.40;;;;;;;9.61;100.00;97737.38;5079602;28;20206;-80
2023/12/24 11:00:37;;;;;;;2.00;0.43;;;;;;;9.55;100.00;97743.09;5079828;28;20207;-80
2023/12/24 11:03:04;;;;;;;0.30;0.30;;;;;;;9.58;100.00;97740.22;5079452;28;20231;-80
2023/12/24 11:05:50;;;;;;;0.40;0.40;;;;;;;9.59;100.00;97728.72;5085364;28;20218;-79
2023/12/24 11:08:30;;;;;;;0.40;0.40;;;;;;;9.59;100.00;97744.53;5085615;28;20667;-80
2023/12/24 11:10:58;;;;;;;0.93;0.37;;;;;;;9.57;100.00;97730.63;5084145;28;20593;-79
2023/12/24 11:13:45;;;;;;;0.57;0.43;;;;;;;9.58;100.00;97729.66;5080418;28;20328;-78
2023/12/24 11:16:12;;;;;;;0.63;0.40;;;;;;;9.64;100.00;97711.63;5073843;28;20214;-79
2023/12/24 11:18:43;;;;;;;0.33;0.30;;;;;;;9.76;100.00;97720.44;5084646;28;20218;-79
2023/12/24 11:21:11;;;;;;;0.30;0.30;;;;;;;9.76;100.00;97705.47;5084886;28;20228;-79
2023/12/24 11:23:39;;;;;;;0.40;0.40;;;;;;;9.83;100.00;97687.34;5082701;28;20210;-79
2023/12/24 11:26:31;;;;;;;0.47;0.20;;;;;;;9.84;100.00;97699.63;5081694;28;20329;-79
2023/12/24 11:28:58;;;;;;;0.37;0.37;;;;;;;9.93;100.00;97697.16;5082635;28;20226;-79
2023/12/24 11:31:26;;;;;;;0.30;0.30;;;;;;;9.95;100.00;97697.03;5081499;28;20234;-79
2023/12/24 11:33:54;;;;;;;0.30;0.30;;;;;;;9.92;100.00;97684.06;5081420;28;20243;-79
2023/12/24 11:36:22;;;;;;;0.57;0.40;;;;;;;9.96;100.00;97683.72;5078443;28;20363;-78
2023/12/24 11:38:53;;;;;;;0.30;0.30;;;;;;;10.01;100.00;97684.22;5080563;28;20224;-78